createdAt,value
2022-11-02T00:02:57.279Z,3.38
2022-11-02T00:07:18.993Z,3.40
2022-11-02T00:11:41.006Z,3.38
2022-11-02T00:16:08.454Z,3.10
2022-11-02T00:20:30.598Z,2.83
2022-11-02T00:24:52.941Z,3.33
2022-11-02T00:29:14.842Z,2.88
2022-11-02T00:33:37.086Z,3.03
2022-11-02T00:37:59.623Z,3.45
2022-11-02T00:42:21.580Z,2.83
2022-11-02T00:46:43.457Z,2.83
2022-11-02T00:51:05.630Z,3.20
2022-11-02T00:55:27.513Z,2.97
2022-11-02T00:59:54.265Z,2.60
2022-11-02T01:04:20.382Z,3.08
2022-11-02T01:08:42.519Z,2.47
2022-11-02T01:13:04.310Z,2.90
2022-11-02T01:17:26.514Z,2.63
2022-11-02T01:21:48.378Z,2.72
2022-11-02T01:26:10.430Z,2.58
2022-11-02T01:30:32.332Z,2.72
2022-11-02T01:34:54.221Z,2.55
2022-11-02T01:39:16.427Z,2.95
2022-11-02T01:43:38.227Z,2.85
2022-11-02T01:48:00.434Z,2.58
2022-11-02T01:52:34.258Z,2.65
2022-11-02T01:57:05.654Z,3.35
2022-11-02T02:01:28.171Z,2.95
2022-11-02T02:06:13.787Z,3.30
2022-11-02T02:10:36.780Z,3.63
2022-11-02T02:15:00.756Z,3.03
2022-11-02T02:19:58.035Z,4.00
2022-11-02T02:24:49.548Z,3.88
2022-11-02T02:30:01.991Z,4.20
2022-11-02T02:34:46.080Z,4.22
2022-11-02T02:39:29.722Z,3.53
2022-11-02T02:43:55.196Z,3.75
2022-11-02T02:48:23.013Z,4.80
2022-11-02T02:52:47.253Z,4.15
2022-11-02T02:57:17.776Z,3.85
2022-11-02T03:01:45.486Z,3.95
2022-11-02T03:06:23.009Z,3.53
2022-11-02T03:11:16.562Z,4.10
2022-11-02T03:16:06.769Z,5.00
2022-11-02T03:20:59.061Z,3.88
2022-11-02T03:25:52.735Z,4.18
2022-11-02T03:30:19.910Z,3.28
2022-11-02T03:34:52.580Z,3.20
2022-11-02T03:39:20.811Z,3.22
2022-11-02T03:43:44.924Z,2.70
2022-11-02T03:48:11.597Z,2.40
2022-11-02T03:52:39.815Z,3.00
2022-11-02T03:57:07.545Z,3.20
2022-11-02T04:01:31.545Z,2.42
2022-11-02T04:05:53.810Z,2.55
2022-11-02T04:10:27.513Z,2.60
2022-11-02T04:14:49.554Z,2.17
2022-11-02T04:19:28.712Z,2.40
2022-11-02T04:24:18.991Z,3.00
2022-11-02T04:28:42.612Z,2.50
2022-11-02T04:33:24.066Z,2.53
2022-11-02T04:38:21.105Z,2.45
2022-11-02T04:42:47.310Z,2.92
2022-11-02T04:47:09.510Z,2.40
2022-11-02T04:51:31.924Z,2.58
2022-11-02T04:55:54.151Z,2.83
2022-11-02T05:00:17.412Z,2.58
2022-11-02T05:04:39.893Z,3.33
2022-11-02T05:09:02.826Z,2.30
2022-11-02T05:13:27.039Z,2.17
2022-11-02T05:17:51.920Z,2.90
2022-11-02T05:22:13.815Z,3.03
2022-11-02T05:26:36.769Z,2.35
2022-11-02T05:31:01.852Z,3.03
2022-11-02T05:35:26.832Z,2.83
2022-11-02T05:39:58.199Z,3.10
2022-11-02T05:44:20.215Z,3.05
2022-11-02T05:48:42.478Z,2.75
2022-11-02T05:53:04.777Z,2.97
2022-11-02T05:57:27.180Z,2.67
2022-11-02T06:01:49.269Z,3.65
2022-11-02T06:06:12.456Z,2.80
2022-11-02T06:10:34.311Z,2.70
2022-11-02T06:14:56.287Z,2.42
2022-11-02T06:19:18.544Z,3.10
2022-11-02T06:23:40.691Z,2.78
2022-11-02T06:28:02.740Z,1.80
2022-11-02T06:32:26.914Z,2.83
2022-11-02T06:36:48.928Z,3.45
2022-11-02T06:41:10.646Z,2.97
2022-11-02T06:45:34.054Z,2.92
2022-11-02T06:49:56.291Z,3.33
2022-11-02T06:54:18.323Z,3.25
2022-11-02T06:58:40.621Z,2.50
2022-11-02T07:03:05.858Z,2.20
2022-11-02T07:07:28.273Z,2.92
2022-11-02T07:11:50.431Z,3.03
2022-11-02T07:16:12.666Z,2.42
2022-11-02T07:20:34.921Z,2.65
2022-11-02T07:24:56.658Z,2.05
2022-11-02T07:29:19.631Z,2.78
2022-11-02T07:33:41.625Z,2.30
2022-11-02T07:38:07.312Z,2.47
2022-11-02T07:42:29.193Z,2.05
2022-11-02T07:46:52.580Z,1.88
2022-11-02T07:51:14.518Z,2.42
2022-11-02T07:55:36.428Z,2.30
2022-11-02T07:59:58.405Z,2.58
2022-11-02T08:08:46.998Z,2.60
2022-11-02T08:13:11.408Z,2.67
2022-11-02T08:17:35.618Z,2.08
2022-11-02T08:21:57.192Z,2.30
2022-11-02T08:26:19.103Z,2.10
2022-11-02T08:30:41.375Z,2.58
2022-11-02T08:35:03.190Z,1.90
2022-11-02T08:39:25.157Z,2.45
2022-11-02T08:43:47.248Z,2.08
2022-11-02T08:48:09.040Z,2.53
2022-11-02T08:52:40.345Z,2.88
2022-11-02T08:57:02.769Z,2.33
2022-11-02T09:01:24.882Z,3.20
2022-11-02T09:05:47.936Z,2.88
2022-11-02T09:10:10.259Z,2.85
2022-11-02T09:14:31.951Z,2.97
2022-11-02T09:18:53.890Z,2.47
2022-11-02T09:23:21.844Z,2.65
2022-11-02T09:27:44.825Z,2.65
2022-11-02T09:32:06.660Z,3.25
2022-11-02T09:36:28.785Z,2.03
2022-11-02T09:41:30.544Z,2.42
2022-11-02T09:46:13.591Z,2.08
2022-11-02T09:51:20.510Z,2.55
2022-11-02T09:55:53.232Z,2.00
2022-11-02T10:00:18.538Z,1.90
2022-11-02T10:05:17.616Z,1.95
2022-11-02T10:09:51.169Z,2.50
2022-11-02T10:14:23.103Z,2.53
2022-11-02T10:18:49.592Z,1.98
2022-11-02T10:23:38.634Z,2.05
2022-11-02T10:28:24.372Z,2.20
2022-11-02T10:33:01.617Z,2.78
2022-11-02T10:38:14.773Z,2.17
2022-11-02T10:42:47.843Z,2.20
2022-11-02T10:47:20.501Z,1.73
2022-11-02T10:51:42.449Z,2.05
2022-11-02T10:56:13.148Z,2.45
2022-11-02T11:00:37.338Z,2.80
2022-11-02T11:05:13.838Z,2.00
2022-11-02T11:09:57.221Z,2.15
2022-11-02T11:23:49.616Z,2.60
2022-11-02T11:28:37.506Z,2.40
2022-11-02T11:33:01.276Z,1.83
2022-11-02T11:37:24.316Z,2.35
2022-11-02T11:41:46.360Z,1.88
2022-11-02T11:46:10.976Z,2.25
2022-11-02T11:50:33.838Z,1.75
2022-11-02T11:54:59.017Z,2.13
2022-11-02T11:59:42.449Z,2.03
2022-11-02T12:04:04.238Z,1.88
2022-11-02T12:08:44.761Z,2.22
2022-11-02T12:13:17.677Z,1.88
2022-11-02T12:18:00.291Z,2.22
2022-11-02T12:22:51.351Z,1.65
2022-11-02T12:27:32.188Z,1.92
2022-11-02T12:32:11.412Z,2.50
2022-11-02T12:37:40.012Z,1.90
2022-11-02T12:42:16.000Z,2.20
2022-11-02T12:47:08.940Z,1.85
2022-11-02T12:51:40.760Z,2.58
2022-11-02T12:56:08.129Z,1.63
2022-11-02T13:00:32.463Z,2.90
2022-11-02T13:05:05.833Z,2.40
2022-11-02T13:09:39.131Z,1.92
2022-11-02T13:14:04.882Z,2.17
2022-11-02T13:18:39.460Z,2.35
2022-11-02T13:28:39.191Z,1.80
2022-11-02T13:33:16.085Z,1.48
2022-11-02T13:37:48.852Z,2.08
2022-11-02T13:42:49.877Z,1.70
2022-11-02T13:47:23.477Z,1.90
2022-11-02T13:51:58.631Z,1.77
2022-11-02T13:56:28.137Z,1.58
2022-11-02T14:00:51.442Z,1.95
2022-11-02T14:05:27.811Z,1.95
2022-11-02T14:09:50.912Z,1.80
2022-11-02T14:14:22.009Z,1.98
2022-11-02T14:18:43.779Z,1.80
2022-11-02T14:23:11.721Z,2.13
2022-11-02T14:27:34.318Z,1.88
2022-11-02T14:32:01.445Z,1.55
2022-11-02T14:36:57.064Z,2.03
2022-11-02T14:41:59.313Z,1.85
2022-11-02T14:47:00.238Z,1.80
2022-11-02T14:51:36.034Z,1.92
2022-11-02T14:55:57.981Z,1.63
2022-11-02T15:00:32.428Z,1.83
2022-11-02T15:05:01.787Z,1.52
2022-11-02T15:10:00.198Z,1.65
2022-11-02T15:14:38.023Z,2.95
2022-11-02T15:19:49.769Z,1.90
2022-11-02T15:24:17.999Z,1.90
2022-11-02T15:28:42.662Z,1.95
2022-11-02T15:33:06.772Z,3.03
2022-11-02T15:37:45.295Z,2.08
2022-11-02T15:42:47.194Z,3.08
2022-11-02T15:47:44.747Z,2.67
2022-11-02T15:52:18.455Z,3.03
2022-11-02T15:57:30.410Z,2.78
2022-11-02T16:02:41.405Z,2.40
2022-11-02T16:07:07.500Z,2.05
2022-11-02T16:11:29.921Z,2.92
2022-11-02T16:16:06.545Z,2.58
2022-11-02T16:20:36.853Z,2.53
2022-11-02T16:24:58.585Z,3.70
2022-11-02T16:29:31.519Z,2.95
2022-11-02T16:33:56.258Z,3.58
2022-11-02T16:38:18.874Z,4.35
2022-11-02T16:42:40.731Z,3.97
2022-11-02T16:47:09.545Z,2.88
2022-11-02T16:51:31.436Z,3.30
2022-11-02T16:55:58.502Z,3.40
2022-11-02T17:00:21.306Z,3.95
2022-11-02T17:04:45.660Z,3.40
2022-11-02T17:09:32.953Z,3.10
2022-11-02T17:14:00.223Z,3.97
2022-11-02T17:18:21.999Z,3.40
2022-11-02T17:23:07.038Z,3.38
2022-11-02T17:27:37.659Z,3.72
2022-11-02T17:32:05.493Z,4.00
2022-11-02T17:36:28.774Z,5.18
2022-11-02T17:40:52.410Z,5.43
2022-11-02T17:45:33.590Z,4.43
2022-11-02T17:49:56.093Z,3.90
2022-11-02T17:54:18.672Z,4.10
2022-11-02T17:58:40.585Z,4.30
2022-11-02T18:03:03.284Z,4.90
2022-11-02T18:07:25.168Z,4.47
2022-11-02T18:11:47.391Z,4.63
2022-11-02T18:16:09.223Z,4.38
2022-11-02T18:20:32.904Z,4.20
2022-11-02T18:24:57.039Z,4.72
2022-11-02T18:29:19.234Z,4.63
2022-11-02T18:33:43.647Z,5.07
2022-11-02T18:38:05.381Z,4.45
2022-11-02T18:42:27.182Z,5.78
2022-11-02T18:46:49.610Z,5.50
2022-11-02T18:51:11.500Z,6.03
2022-11-02T18:55:33.799Z,5.20
2022-11-02T18:59:56.113Z,6.25
2022-11-02T19:04:18.042Z,6.93
2022-11-02T19:08:58.894Z,7.45
2022-11-02T19:13:21.207Z,7.35
2022-11-02T19:17:45.353Z,7.10
2022-11-02T19:22:08.141Z,7.03
2022-11-02T19:26:30.275Z,6.63
2022-11-02T19:30:52.419Z,6.30
2022-11-02T19:35:15.301Z,6.07
2022-11-02T19:39:37.635Z,6.47
2022-11-02T19:43:59.692Z,7.20
2022-11-02T19:48:21.435Z,5.97
2022-11-02T19:52:46.521Z,7.05
2022-11-02T19:57:08.420Z,7.65
2022-11-02T20:01:33.315Z,7.45
2022-11-02T20:06:01.091Z,8.05
2022-11-02T20:10:23.835Z,8.52
2022-11-02T20:14:46.494Z,9.57
2022-11-02T20:19:10.156Z,7.78
2022-11-02T20:23:33.814Z,7.70
2022-11-02T20:27:58.025Z,9.50
2022-11-02T20:32:24.021Z,8.88
2022-11-02T20:36:47.700Z,7.88
2022-11-02T20:41:19.921Z,8.30
2022-11-02T20:45:42.454Z,8.35
2022-11-02T20:50:04.534Z,7.88
2022-11-02T20:54:29.854Z,7.82
2022-11-02T20:58:55.714Z,7.75
2022-11-02T21:03:19.507Z,7.50
2022-11-02T21:07:41.681Z,6.82
2022-11-02T21:12:22.526Z,8.40
2022-11-02T21:16:44.828Z,7.88
2022-11-02T21:21:10.960Z,8.52
2022-11-02T21:25:33.519Z,7.07
2022-11-02T21:29:55.670Z,8.40
2022-11-02T21:34:17.775Z,8.60
2022-11-02T21:38:40.478Z,8.82
2022-11-02T21:43:02.750Z,8.48
2022-11-02T21:47:25.752Z,8.18
2022-11-02T21:51:47.921Z,8.25
2022-11-02T21:56:18.446Z,7.85
2022-11-02T22:00:59.281Z,7.85
2022-11-02T22:05:40.853Z,9.18
2022-11-02T22:10:04.708Z,8.20
2022-11-02T22:14:27.197Z,9.70
2022-11-02T22:18:49.667Z,9.10
2022-11-02T22:23:11.791Z,9.80
2022-11-02T22:27:36.873Z,9.45
2022-11-02T22:32:03.396Z,7.93
2022-11-02T22:36:31.644Z,9.10
2022-11-02T22:41:03.267Z,9.00
2022-11-02T22:45:24.814Z,9.30
2022-11-02T22:49:46.770Z,9.18
2022-11-02T22:54:14.933Z,9.70
2022-11-02T22:58:37.310Z,10.15
2022-11-02T23:02:59.314Z,9.40
2022-11-02T23:07:21.221Z,9.10
2022-11-02T23:11:43.952Z,9.68
2022-11-02T23:16:22.617Z,10.25
2022-11-02T23:20:53.755Z,9.60
2022-11-02T23:25:17.744Z,8.20
2022-11-02T23:29:58.534Z,9.40
2022-11-02T23:34:20.295Z,7.82
2022-11-02T23:39:06.816Z,7.63
2022-11-02T23:43:28.627Z,8.68
2022-11-02T23:47:57.122Z,9.20
2022-11-02T23:52:37.461Z,9.48
2022-11-02T23:56:59.569Z,9.00
